sensor_id;sensor_type;location;lat;lon;timestamp;noise_LAeq;noise_LA_min;noise_LA_max;noise_LA01;noise_LA95
64393;Laerm;50712;49.506;10.400;2023-04-03T00:00:05;29.22;27.74;30.53;;
64393;Laerm;50712;49.506;10.400;2023-04-03T00:00:36;28.98;27.81;30.29;;
64393;Laerm;50712;49.506;10.400;2023-04-03T00:01:07;29.27;27.47;31.12;;
64393;Laerm;50712;49.506;10.400;2023-04-03T00:01:38;29.51;27.99;31.68;;
64393;Laerm;50712;49.506;10.400;2023-04-03T00:02:08;29.83;28.17;34.93;;
64393;Laerm;50712;49.506;10.400;2023-04-03T00:03:10;29.35;28.02;31.07;;
64393;Laerm;50712;49.506;10.400;2023-04-03T00:03:41;29.05;27.72;32.06;;
64393;Laerm;50712;49.506;10.400;2023-04-03T00:04:11;29.09;27.84;30.39;;
64393;Laerm;50712;49.506;10.400;2023-04-03T00:04:42;28.99;27.77;30.40;;
64393;Laerm;50712;49.506;10.400;2023-04-03T00:05:12;29.23;27.88;30.54;;
64393;Laerm;50712;49.506;10.400;2023-04-03T00:05:42;30.55;28.07;34.16;;
64393;Laerm;50712;49.506;10.400;2023-04-03T00:06:13;29.53;27.99;31.54;;
64393;Laerm;50712;49.506;10.400;2023-04-03T00:06:43;29.19;27.93;30.31;;
64393;Laerm;50712;49.506;10.400;2023-04-03T00:07:13;29.63;28.09;32.78;;
64393;Laerm;50712;49.506;10.400;2023-04-03T00:07:45;28.82;27.59;30.00;;
64393;Laerm;50712;49.506;10.400;2023-04-03T00:08:15;29.09;27.65;32.78;;
64393;Laerm;50712;49.506;10.400;2023-04-03T00:08:45;29.61;28.08;31.75;;
64393;Laerm;50712;49.506;10.400;2023-04-03T00:09:16;29.82;27.74;33.12;;
64393;Laerm;50712;49.506;10.400;2023-04-03T00:09:46;29.85;28.18;32.00;;
64393;Laerm;50712;49.506;10.400;2023-04-03T00:10:17;29.95;28.31;33.43;;
64393;Laerm;50712;49.506;10.400;2023-04-03T00:10:47;30.52;28.64;33.15;;
64393;Laerm;50712;49.506;10.400;2023-04-03T00:11:18;31.00;28.61;33.87;;
64393;Laerm;50712;49.506;10.400;2023-04-03T00:11:48;30.68;28.88;32.88;;
64393;Laerm;50712;49.506;10.400;2023-04-03T00:12:18;30.39;28.84;32.83;;
64393;Laerm;50712;49.506;10.400;2023-04-03T00:12:49;29.72;28.25;31.40;;
64393;Laerm;50712;49.506;10.400;2023-04-03T00:13:19;29.47;28.05;31.71;;
64393;Laerm;50712;49.506;10.400;2023-04-03T00:13:50;29.90;28.19;32.82;;
64393;Laerm;50712;49.506;10.400;2023-04-03T00:14:20;29.76;27.86;31.88;;
64393;Laerm;50712;49.506;10.400;2023-04-03T00:14:50;29.85;28.34;35.46;;
64393;Laerm;50712;49.506;10.400;2023-04-03T00:15:21;30.30;28.64;32.88;;
64393;Laerm;50712;49.506;10.400;2023-04-03T00:15:51;29.69;28.25;31.20;;
64393;Laerm;50712;49.506;10.400;2023-04-03T00:16:22;30.08;28.06;33.18;;
64393;Laerm;50712;49.506;10.400;2023-04-03T00:16:52;29.54;28.13;31.79;;
64393;Laerm;50712;49.506;10.400;2023-04-03T00:17:23;30.11;28.10;32.74;;
64393;Laerm;50712;49.506;10.400;2023-04-03T00:17:53;29.87;28.49;31.91;;
64393;Laerm;50712;49.506;10.400;2023-04-03T00:18:23;30.86;28.32;34.25;;
64393;Laerm;50712;49.506;10.400;2023-04-03T00:18:54;30.65;28.62;34.32;;
64393;Laerm;50712;49.506;10.400;2023-04-03T00:19:25;29.93;28.62;32.26;;
64393;Laerm;50712;49.506;10.400;2023-04-03T00:19:55;30.40;28.37;34.36;;
64393;Laerm;50712;49.506;10.400;2023-04-03T00:20:25;30.91;29.01;34.56;;
64393;Laerm;50712;49.506;10.400;2023-04-03T00:20:57;30.68;28.43;37.03;;
64393;Laerm;50712;49.506;10.400;2023-04-03T00:21:28;30.06;28.33;32.01;;
64393;Laerm;50712;49.506;10.400;2023-04-03T00:21:58;29.58;27.78;33.05;;
64393;Laerm;50712;49.506;10.400;2023-04-03T00:22:28;29.28;27.73;31.28;;
64393;Laerm;50712;49.506;10.400;2023-04-03T00:22:59;29.28;28.04;31.27;;
64393;Laerm;50712;49.506;10.400;2023-04-03T00:23:30;29.88;28.20;38.32;;
64393;Laerm;50712;49.506;10.400;2023-04-03T00:24:00;30.05;28.24;31.91;;
64393;Laerm;50712;49.506;10.400;2023-04-03T00:24:31;29.80;28.23;31.39;;
64393;Laerm;50712;49.506;10.400;2023-04-03T00:25:01;29.99;28.32;35.98;;
64393;Laerm;50712;49.506;10.400;2023-04-03T00:25:32;30.01;28.17;32.34;;
64393;Laerm;50712;49.506;10.400;2023-04-03T00:26:02;29.95;27.92;34.22;;
64393;Laerm;50712;49.506;10.400;2023-04-03T00:26:33;29.98;28.09;37.58;;
64393;Laerm;50712;49.506;10.400;2023-04-03T00:27:03;29.83;28.25;31.44;;
64393;Laerm;50712;49.506;10.400;2023-04-03T00:27:36;30.30;28.27;33.71;;
64393;Laerm;50712;49.506;10.400;2023-04-03T00:28:06;30.41;28.20;33.67;;
64393;Laerm;50712;49.506;10.400;2023-04-03T00:28:37;30.48;28.44;34.77;;
64393;Laerm;50712;49.506;10.400;2023-04-03T00:29:07;30.15;28.14;32.38;;
64393;Laerm;50712;49.506;10.400;2023-04-03T00:29:38;30.43;28.58;40.01;;
64393;Laerm;50712;49.506;10.400;2023-04-03T00:30:10;30.90;28.71;36.42;;
64393;Laerm;50712;49.506;10.400;2023-04-03T00:30:42;29.77;28.09;32.40;;
64393;Laerm;50712;49.506;10.400;2023-04-03T00:31:15;29.99;28.05;31.87;;
64393;Laerm;50712;49.506;10.400;2023-04-03T00:31:46;30.64;27.87;33.93;;
64393;Laerm;50712;49.506;10.400;2023-04-03T00:32:16;31.04;28.82;34.88;;
64393;Laerm;50712;49.506;10.400;2023-04-03T00:32:48;31.19;29.35;34.56;;
64393;Laerm;50712;49.506;10.400;2023-04-03T00:33:19;30.98;28.30;39.72;;
64393;Laerm;50712;49.506;10.400;2023-04-03T00:33:51;30.58;28.68;32.67;;
64393;Laerm;50712;49.506;10.400;2023-04-03T00:34:52;31.45;29.42;43.01;;
64393;Laerm;50712;49.506;10.400;2023-04-03T00:35:23;32.44;29.47;41.94;;
64393;Laerm;50712;49.506;10.400;2023-04-03T00:35:54;32.04;29.42;50.49;;
64393;Laerm;50712;49.506;10.400;2023-04-03T00:36:24;31.15;29.18;34.40;;
64393;Laerm;50712;49.506;10.400;2023-04-03T00:36:55;31.61;29.39;46.88;;
64393;Laerm;50712;49.506;10.400;2023-04-03T00:37:56;32.30;29.01;42.41;;
64393;Laerm;50712;49.506;10.400;2023-04-03T00:38:26;32.54;29.63;38.87;;
64393;Laerm;50712;49.506;10.400;2023-04-03T00:38:57;31.34;28.87;40.93;;
64393;Laerm;50712;49.506;10.400;2023-04-03T00:39:27;31.69;28.93;37.65;;
64393;Laerm;50712;49.506;10.400;2023-04-03T00:40:34;33.70;29.19;40.51;;
64393;Laerm;50712;49.506;10.400;2023-04-03T00:41:04;31.34;28.69;35.73;;
64393;Laerm;50712;49.506;10.400;2023-04-03T00:41:35;30.23;28.39;42.17;;
64393;Laerm;50712;49.506;10.400;2023-04-03T00:42:06;30.72;28.53;33.13;;
64393;Laerm;50712;49.506;10.400;2023-04-03T00:42:37;30.52;28.65;39.58;;
64393;Laerm;50712;49.506;10.400;2023-04-03T00:43:17;29.89;28.46;31.48;;
64393;Laerm;50712;49.506;10.400;2023-04-03T00:43:47;29.97;28.66;32.36;;
64393;Laerm;50712;49.506;10.400;2023-04-03T00:45:50;29.80;28.29;31.58;;
64393;Laerm;50712;49.506;10.400;2023-04-03T00:46:20;30.14;28.54;33.77;;
64393;Laerm;50712;49.506;10.400;2023-04-03T00:47:21;30.37;28.18;37.47;;
64393;Laerm;50712;49.506;10.400;2023-04-03T00:47:52;30.48;28.21;34.07;;
64393;Laerm;50712;49.506;10.400;2023-04-03T00:48:33;30.24;28.42;32.97;;
64393;Laerm;50712;49.506;10.400;2023-04-03T00:49:04;30.03;28.53;31.73;;
64393;Laerm;50712;49.506;10.400;2023-04-03T00:49:36;30.37;28.49;34.51;;
64393;Laerm;50712;49.506;10.400;2023-04-03T00:50:07;29.92;28.49;34.62;;
64393;Laerm;50712;49.506;10.400;2023-04-03T00:50:40;29.58;27.99;32.49;;
64393;Laerm;50712;49.506;10.400;2023-04-03T00:51:14;29.34;27.92;30.81;;
64393;Laerm;50712;49.506;10.400;2023-04-03T00:51:46;30.01;28.21;33.22;;
64393;Laerm;50712;49.506;10.400;2023-04-03T00:52:20;36.14;29.59;46.71;;
64393;Laerm;50712;49.506;10.400;2023-04-03T00:52:51;36.85;30.73;44.42;;
64393;Laerm;50712;49.506;10.400;2023-04-03T00:53:26;33.87;30.10;40.00;;
64393;Laerm;50712;49.506;10.400;2023-04-03T00:54:01;31.55;29.05;34.89;;
64393;Laerm;50712;49.506;10.400;2023-04-03T00:54:34;31.25;28.71;34.71;;
64393;Laerm;50712;49.506;10.400;2023-04-03T00:55:08;31.76;28.97;37.37;;
64393;Laerm;50712;49.506;10.400;2023-04-03T00:55:38;30.72;28.58;34.69;;
64393;Laerm;50712;49.506;10.400;2023-04-03T00:56:12;30.68;28.50;33.25;;
64393;Laerm;50712;49.506;10.400;2023-04-03T00:56:43;29.80;28.16;32.53;;
64393;Laerm;50712;49.506;10.400;2023-04-03T00:57:15;29.89;27.99;34.38;;
64393;Laerm;50712;49.506;10.400;2023-04-03T00:57:46;30.60;28.58;33.03;;
64393;Laerm;50712;49.506;10.400;2023-04-03T00:58:20;30.43;28.39;32.48;;
64393;Laerm;50712;49.506;10.400;2023-04-03T00:59:27;30.26;28.67;32.52;;
64393;Laerm;50712;49.506;10.400;2023-04-03T01:00:20;30.48;28.24;33.40;;
64393;Laerm;50712;49.506;10.400;2023-04-03T01:00:55;29.42;27.76;32.64;;
64393;Laerm;50712;49.506;10.400;2023-04-03T01:01:29;29.50;28.17;30.99;;
64393;Laerm;50712;49.506;10.400;2023-04-03T01:02:00;29.21;27.89;30.56;;
64393;Laerm;50712;49.506;10.400;2023-04-03T01:02:30;29.85;28.36;31.72;;
64393;Laerm;50712;49.506;10.400;2023-04-03T01:03:01;29.68;27.67;31.20;;
64393;Laerm;50712;49.506;10.400;2023-04-03T01:03:32;29.35;27.81;30.94;;
64393;Laerm;50712;49.506;10.400;2023-04-03T01:04:05;29.14;27.80;30.71;;
64393;Laerm;50712;49.506;10.400;2023-04-03T01:05:08;29.58;28.00;31.16;;
64393;Laerm;50712;49.506;10.400;2023-04-03T01:05:39;29.48;28.16;31.16;;
64393;Laerm;50712;49.506;10.400;2023-04-03T01:06:18;29.42;27.98;31.60;;
64393;Laerm;50712;49.506;10.400;2023-04-03T01:06:51;29.67;28.19;31.47;;
64393;Laerm;50712;49.506;10.400;2023-04-03T01:07:24;30.16;28.42;33.24;;
64393;Laerm;50712;49.506;10.400;2023-04-03T01:07:56;30.08;28.37;33.54;;
64393;Laerm;50712;49.506;10.400;2023-04-03T01:08:28;29.20;27.65;30.71;;
64393;Laerm;50712;49.506;10.400;2023-04-03T01:08:59;29.06;27.50;30.71;;
64393;Laerm;50712;49.506;10.400;2023-04-03T01:09:31;29.27;27.94;31.41;;
64393;Laerm;50712;49.506;10.400;2023-04-03T01:10:06;29.69;27.89;34.16;;
64393;Laerm;50712;49.506;10.400;2023-04-03T01:10:37;29.80;27.92;31.84;;
64393;Laerm;50712;49.506;10.400;2023-04-03T01:11:07;29.50;27.74;32.56;;
64393;Laerm;50712;49.506;10.400;2023-04-03T01:11:38;29.55;27.79;38.80;;
64393;Laerm;50712;49.506;10.400;2023-04-03T01:12:16;29.75;28.08;37.11;;
64393;Laerm;50712;49.506;10.400;2023-04-03T01:12:49;29.75;27.83;32.97;;
64393;Laerm;50712;49.506;10.400;2023-04-03T01:13:24;29.43;27.90;31.09;;
64393;Laerm;50712;49.506;10.400;2023-04-03T01:13:54;29.34;27.83;33.19;;
64393;Laerm;50712;49.506;10.400;2023-04-03T01:14:25;29.80;28.47;31.95;;
64393;Laerm;50712;49.506;10.400;2023-04-03T01:14:58;34.77;28.50;43.87;;
64393;Laerm;50712;49.506;10.400;2023-04-03T01:15:29;36.13;30.20;44.13;;
64393;Laerm;50712;49.506;10.400;2023-04-03T01:16:05;34.64;29.53;43.06;;
64393;Laerm;50712;49.506;10.400;2023-04-03T01:16:36;32.18;29.17;36.78;;
64393;Laerm;50712;49.506;10.400;2023-04-03T01:17:29;30.42;28.26;41.95;;
64393;Laerm;50712;49.506;10.400;2023-04-03T01:18:00;29.56;27.47;33.36;;
64393;Laerm;50712;49.506;10.400;2023-04-03T01:18:32;30.19;27.72;45.55;;
64393;Laerm;50712;49.506;10.400;2023-04-03T01:19:03;29.78;28.25;38.26;;
64393;Laerm;50712;49.506;10.400;2023-04-03T01:19:37;29.92;28.13;32.29;;
64393;Laerm;50712;49.506;10.400;2023-04-03T01:21:36;29.36;27.96;31.99;;
64393;Laerm;50712;49.506;10.400;2023-04-03T01:22:01;29.87;28.12;39.16;;
64393;Laerm;50712;49.506;10.400;2023-04-03T01:24:35;30.35;28.14;40.97;;
64393;Laerm;50712;49.506;10.400;2023-04-03T01:25:08;29.64;28.03;31.19;;
64393;Laerm;50712;49.506;10.400;2023-04-03T01:25:50;31.19;27.84;46.79;;
64393;Laerm;50712;49.506;10.400;2023-04-03T01:26:21;31.23;28.24;44.25;;
64393;Laerm;50712;49.506;10.400;2023-04-03T01:26:51;30.10;28.23;38.29;;
64393;Laerm;50712;49.506;10.400;2023-04-03T01:27:21;29.34;28.14;32.45;;
64393;Laerm;50712;49.506;10.400;2023-04-03T01:27:53;29.18;27.84;30.44;;
64393;Laerm;50712;49.506;10.400;2023-04-03T01:28:26;29.38;27.97;39.84;;
64393;Laerm;50712;49.506;10.400;2023-04-03T01:28:59;29.85;28.20;31.87;;
64393;Laerm;50712;49.506;10.400;2023-04-03T01:29:29;29.52;27.94;36.66;;
64393;Laerm;50712;49.506;10.400;2023-04-03T01:30:00;29.82;28.29;31.29;;
64393;Laerm;50712;49.506;10.400;2023-04-03T01:31:23;30.14;28.31;33.64;;
64393;Laerm;50712;49.506;10.400;2023-04-03T01:32:02;29.78;28.34;31.79;;
64393;Laerm;50712;49.506;10.400;2023-04-03T01:32:33;29.61;28.25;31.72;;
64393;Laerm;50712;49.506;10.400;2023-04-03T01:33:04;29.60;27.97;31.07;;
64393;Laerm;50712;49.506;10.400;2023-04-03T01:33:35;29.83;28.23;31.97;;
64393;Laerm;50712;49.506;10.400;2023-04-03T01:34:06;30.16;28.47;33.03;;
64393;Laerm;50712;49.506;10.400;2023-04-03T01:34:36;29.54;28.10;30.87;;
64393;Laerm;50712;49.506;10.400;2023-04-03T01:35:08;29.85;28.26;32.83;;
64393;Laerm;50712;49.506;10.400;2023-04-03T01:35:38;29.80;28.27;31.27;;
64393;Laerm;50712;49.506;10.400;2023-04-03T01:36:12;30.23;28.23;31.87;;
64393;Laerm;50712;49.506;10.400;2023-04-03T01:36:44;30.40;28.55;34.76;;
64393;Laerm;50712;49.506;10.400;2023-04-03T01:37:14;30.48;28.45;33.95;;
64393;Laerm;50712;49.506;10.400;2023-04-03T01:37:44;30.27;28.27;35.04;;
64393;Laerm;50712;49.506;10.400;2023-04-03T01:38:15;30.14;28.09;32.62;;
64393;Laerm;50712;49.506;10.400;2023-04-03T01:38:46;30.21;28.58;31.94;;
64393;Laerm;50712;49.506;10.400;2023-04-03T01:39:17;30.51;28.41;33.29;;
64393;Laerm;50712;49.506;10.400;2023-04-03T01:39:47;30.53;28.21;34.47;;
64393;Laerm;50712;49.506;10.400;2023-04-03T01:40:18;31.30;29.42;35.17;;
64393;Laerm;50712;49.506;10.400;2023-04-03T01:40:49;30.49;28.66;32.71;;
64393;Laerm;50712;49.506;10.400;2023-04-03T01:41:20;30.29;28.57;32.14;;
64393;Laerm;50712;49.506;10.400;2023-04-03T01:41:52;30.02;28.53;31.60;;
64393;Laerm;50712;49.506;10.400;2023-04-03T01:42:29;30.29;28.16;34.42;;
64393;Laerm;50712;49.506;10.400;2023-04-03T01:43:00;30.56;28.47;34.07;;
64393;Laerm;50712;49.506;10.400;2023-04-03T01:43:30;30.56;28.27;35.25;;
64393;Laerm;50712;49.506;10.400;2023-04-03T01:44:00;29.48;27.93;31.12;;
64393;Laerm;50712;49.506;10.400;2023-04-03T01:44:31;29.67;28.09;31.98;;
64393;Laerm;50712;49.506;10.400;2023-04-03T01:45:01;30.07;28.49;32.44;;
64393;Laerm;50712;49.506;10.400;2023-04-03T01:45:32;29.72;27.88;32.49;;
64393;Laerm;50712;49.506;10.400;2023-04-03T01:46:02;29.92;28.15;34.57;;
64393;Laerm;50712;49.506;10.400;2023-04-03T01:46:33;30.20;28.38;32.20;;
64393;Laerm;50712;49.506;10.400;2023-04-03T01:47:05;29.66;28.31;31.59;;
64393;Laerm;50712;49.506;10.400;2023-04-03T01:47:37;30.13;28.20;37.88;;
64393;Laerm;50712;49.506;10.400;2023-04-03T01:48:07;35.39;29.44;43.88;;
64393;Laerm;50712;49.506;10.400;2023-04-03T01:48:38;43.64;31.04;50.92;;
64393;Laerm;50712;49.506;10.400;2023-04-03T01:49:08;41.02;31.65;49.45;;
64393;Laerm;50712;49.506;10.400;2023-04-03T01:49:39;36.03;28.48;43.02;;
64393;Laerm;50712;49.506;10.400;2023-04-03T01:50:09;30.52;28.60;33.38;;
64393;Laerm;50712;49.506;10.400;2023-04-03T01:50:41;29.97;28.06;32.41;;
64393;Laerm;50712;49.506;10.400;2023-04-03T01:51:11;29.96;28.15;32.67;;
64393;Laerm;50712;49.506;10.400;2023-04-03T01:51:42;29.52;27.79;30.92;;
64393;Laerm;50712;49.506;10.400;2023-04-03T01:52:12;29.68;28.32;31.29;;
64393;Laerm;50712;49.506;10.400;2023-04-03T01:52:42;30.25;28.16;31.90;;
64393;Laerm;50712;49.506;10.400;2023-04-03T01:53:13;30.54;28.69;33.05;;
64393;Laerm;50712;49.506;10.400;2023-04-03T01:53:44;29.92;28.63;31.71;;
64393;Laerm;50712;49.506;10.400;2023-04-03T01:54:15;30.44;28.77;34.24;;
64393;Laerm;50712;49.506;10.400;2023-04-03T01:54:45;29.98;28.28;32.03;;
64393;Laerm;50712;49.506;10.400;2023-04-03T01:55:15;29.72;28.24;31.54;;
64393;Laerm;50712;49.506;10.400;2023-04-03T01:55:48;30.17;28.33;32.20;;
64393;Laerm;50712;49.506;10.400;2023-04-03T01:56:18;30.19;27.78;31.98;;
64393;Laerm;50712;49.506;10.400;2023-04-03T01:56:49;30.14;28.42;31.66;;
64393;Laerm;50712;49.506;10.400;2023-04-03T01:57:19;30.70;28.54;33.28;;
64393;Laerm;50712;49.506;10.400;2023-04-03T01:57:50;30.99;28.73;36.67;;
64393;Laerm;50712;49.506;10.400;2023-04-03T01:58:20;30.16;28.54;31.94;;
64393;Laerm;50712;49.506;10.400;2023-04-03T01:58:52;30.07;28.41;32.09;;
64393;Laerm;50712;49.506;10.400;2023-04-03T01:59:22;30.28;28.76;31.88;;
64393;Laerm;50712;49.506;10.400;2023-04-03T01:59:53;30.09;28.27;31.90;;
64393;Laerm;50712;49.506;10.400;2023-04-03T02:00:23;31.34;28.75;34.34;;
64393;Laerm;50712;49.506;10.400;2023-04-03T02:00:54;30.28;28.37;33.00;;
64393;Laerm;50712;49.506;10.400;2023-04-03T02:01:24;30.81;28.60;34.63;;
64393;Laerm;50712;49.506;10.400;2023-04-03T02:01:56;32.24;30.43;34.05;;
64393;Laerm;50712;49.506;10.400;2023-04-03T02:02:26;32.05;28.00;34.43;;
64393;Laerm;50712;49.506;10.400;2023-04-03T02:02:56;33.27;29.12;39.46;;
64393;Laerm;50712;49.506;10.400;2023-04-03T02:03:27;36.65;30.96;42.53;;
64393;Laerm;50712;49.506;10.400;2023-04-03T02:03:57;37.63;31.79;44.00;;
64393;Laerm;50712;49.506;10.400;2023-04-03T02:04:28;35.63;29.74;42.47;;
64393;Laerm;50712;49.506;10.400;2023-04-03T02:04:58;32.16;28.74;38.12;;
64393;Laerm;50712;49.506;10.400;2023-04-03T02:05:29;30.49;28.66;34.00;;
64393;Laerm;50712;49.506;10.400;2023-04-03T02:05:59;29.77;28.27;31.88;;
64393;Laerm;50712;49.506;10.400;2023-04-03T02:06:30;29.90;27.98;31.70;;
64393;Laerm;50712;49.506;10.400;2023-04-03T02:07:00;29.91;28.37;33.41;;
64393;Laerm;50712;49.506;10.400;2023-04-03T02:07:31;29.91;28.32;44.71;;
64393;Laerm;50712;49.506;10.400;2023-04-03T02:08:01;29.22;27.78;30.73;;
64393;Laerm;50712;49.506;10.400;2023-04-03T02:08:32;29.22;27.91;32.92;;
64393;Laerm;50712;49.506;10.400;2023-04-03T02:09:04;29.71;28.04;36.83;;
64393;Laerm;50712;49.506;10.400;2023-04-03T02:09:34;30.05;28.35;46.09;;
64393;Laerm;50712;49.506;10.400;2023-04-03T02:10:05;29.49;27.99;41.85;;
64393;Laerm;50712;49.506;10.400;2023-04-03T02:10:35;29.52;27.82;31.80;;
64393;Laerm;50712;49.506;10.400;2023-04-03T02:11:06;30.01;28.26;32.09;;
64393;Laerm;50712;49.506;10.400;2023-04-03T02:11:37;30.47;28.36;36.25;;
64393;Laerm;50712;49.506;10.400;2023-04-03T02:12:08;30.04;28.07;38.70;;
64393;Laerm;50712;49.506;10.400;2023-04-03T02:12:38;29.91;28.33;32.26;;
64393;Laerm;50712;49.506;10.400;2023-04-03T02:13:09;30.49;28.69;35.85;;
64393;Laerm;50712;49.506;10.400;2023-04-03T02:13:39;30.34;28.66;44.07;;
64393;Laerm;50712;49.506;10.400;2023-04-03T02:14:10;29.82;28.38;37.86;;
64393;Laerm;50712;49.506;10.400;2023-04-03T02:14:40;35.53;28.22;49.45;;
64393;Laerm;50712;49.506;10.400;2023-04-03T02:15:15;32.60;28.80;45.08;;
64393;Laerm;50712;49.506;10.400;2023-04-03T02:15:45;31.25;28.58;36.04;;
64393;Laerm;50712;49.506;10.400;2023-04-03T02:16:18;30.55;28.54;34.00;;
64393;Laerm;50712;49.506;10.400;2023-04-03T02:16:49;30.95;28.96;37.80;;
64393;Laerm;50712;49.506;10.400;2023-04-03T02:17:19;30.18;28.44;37.52;;
64393;Laerm;50712;49.506;10.400;2023-04-03T02:17:50;30.17;27.98;32.14;;
64393;Laerm;50712;49.506;10.400;2023-04-03T02:18:20;33.38;28.68;42.80;;
64393;Laerm;50712;49.506;10.400;2023-04-03T02:18:50;31.68;28.91;36.46;;
64393;Laerm;50712;49.506;10.400;2023-04-03T02:19:21;30.59;28.56;34.93;;
64393;Laerm;50712;49.506;10.400;2023-04-03T02:19:51;29.72;28.45;33.24;;
64393;Laerm;50712;49.506;10.400;2023-04-03T02:20:22;29.51;28.23;31.04;;
64393;Laerm;50712;49.506;10.400;2023-04-03T02:20:53;29.71;28.01;31.41;;
64393;Laerm;50712;49.506;10.400;2023-04-03T02:21:23;29.62;27.78;31.38;;
64393;Laerm;50712;49.506;10.400;2023-04-03T02:21:54;30.10;28.24;32.39;;
64393;Laerm;50712;49.506;10.400;2023-04-03T02:22:24;29.90;28.23;32.50;;
64393;Laerm;50712;49.506;10.400;2023-04-03T02:22:55;29.98;28.47;41.70;;
64393;Laerm;50712;49.506;10.400;2023-04-03T02:23:25;30.25;28.60;31.87;;
64393;Laerm;50712;49.506;10.400;2023-04-03T02:23:56;30.29;28.74;32.30;;
64393;Laerm;50712;49.506;10.400;2023-04-03T02:24:27;30.72;28.75;32.85;;
64393;Laerm;50712;49.506;10.400;2023-04-03T02:24:57;31.75;28.53;35.76;;
64393;Laerm;50712;49.506;10.400;2023-04-03T02:25:29;33.39;29.92;44.10;;
64393;Laerm;50712;49.506;10.400;2023-04-03T02:26:05;31.42;29.29;34.79;;
64393;Laerm;50712;49.506;10.400;2023-04-03T02:26:36;31.07;29.37;34.12;;
64393;Laerm;50712;49.506;10.400;2023-04-03T02:27:06;31.25;28.61;35.54;;
64393;Laerm;50712;49.506;10.400;2023-04-03T02:27:37;30.47;28.63;32.09;;
64393;Laerm;50712;49.506;10.400;2023-04-03T02:28:07;30.48;28.64;32.25;;
64393;Laerm;50712;49.506;10.400;2023-04-03T02:28:38;30.99;29.13;33.28;;
64393;Laerm;50712;49.506;10.400;2023-04-03T02:29:08;30.53;28.69;32.33;;
64393;Laerm;50712;49.506;10.400;2023-04-03T02:29:39;30.73;28.73;33.48;;
64393;Laerm;50712;49.506;10.400;2023-04-03T02:30:10;31.31;29.10;35.92;;
64393;Laerm;50712;49.506;10.400;2023-04-03T02:30:41;30.59;28.93;32.35;;
64393;Laerm;50712;49.506;10.400;2023-04-03T02:31:11;31.31;29.37;33.48;;
64393;Laerm;50712;49.506;10.400;2023-04-03T02:31:43;31.88;28.80;37.41;;
64393;Laerm;50712;49.506;10.400;2023-04-03T02:32:14;31.59;28.87;37.59;;
64393;Laerm;50712;49.506;10.400;2023-04-03T02:32:44;31.07;29.22;34.85;;
64393;Laerm;50712;49.506;10.400;2023-04-03T02:33:15;31.43;28.98;36.66;;
64393;Laerm;50712;49.506;10.400;2023-04-03T02:33:45;32.33;29.55;45.64;;
64393;Laerm;50712;49.506;10.400;2023-04-03T02:34:18;32.02;29.37;39.24;;
64393;Laerm;50712;49.506;10.400;2023-04-03T02:34:50;31.15;29.14;40.29;;
64393;Laerm;50712;49.506;10.400;2023-04-03T02:35:21;30.32;28.67;33.64;;
64393;Laerm;50712;49.506;10.400;2023-04-03T02:35:56;30.29;28.62;32.82;;
64393;Laerm;50712;49.506;10.400;2023-04-03T02:36:27;30.33;28.04;37.10;;
64393;Laerm;50712;49.506;10.400;2023-04-03T02:37:01;30.82;29.12;34.09;;
64393;Laerm;50712;49.506;10.400;2023-04-03T02:37:32;42.18;29.28;63.15;;
64393;Laerm;50712;49.506;10.400;2023-04-03T02:38:02;32.32;29.44;41.25;;
64393;Laerm;50712;49.506;10.400;2023-04-03T02:38:33;32.86;29.72;39.42;;
64393;Laerm;50712;49.506;10.400;2023-04-03T02:39:05;44.37;30.67;53.86;;
64393;Laerm;50712;49.506;10.400;2023-04-03T02:39:35;49.68;37.58;55.53;;
64393;Laerm;50712;49.506;10.400;2023-04-03T02:40:07;45.99;33.01;53.03;;
64393;Laerm;50712;49.506;10.400;2023-04-03T02:40:39;35.65;30.50;42.67;;
64393;Laerm;50712;49.506;10.400;2023-04-03T02:41:11;31.21;29.03;34.75;;
64393;Laerm;50712;49.506;10.400;2023-04-03T02:41:42;30.61;28.46;37.88;;
64393;Laerm;50712;49.506;10.400;2023-04-03T02:42:17;30.25;28.21;32.81;;
64393;Laerm;50712;49.506;10.400;2023-04-03T02:42:48;30.15;28.59;33.62;;
64393;Laerm;50712;49.506;10.400;2023-04-03T02:43:18;30.58;28.74;33.91;;
64393;Laerm;50712;49.506;10.400;2023-04-03T02:43:49;30.69;28.92;32.69;;
64393;Laerm;50712;49.506;10.400;2023-04-03T02:44:20;30.32;28.49;32.54;;
64393;Laerm;50712;49.506;10.400;2023-04-03T02:44:50;30.72;28.80;33.14;;
64393;Laerm;50712;49.506;10.400;2023-04-03T02:45:21;30.48;28.66;32.24;;
64393;Laerm;50712;49.506;10.400;2023-04-03T02:45:51;30.02;28.65;36.54;;
64393;Laerm;50712;49.506;10.400;2023-04-03T02:46:22;30.64;28.36;33.33;;
64393;Laerm;50712;49.506;10.400;2023-04-03T02:46:52;30.50;28.63;32.30;;
64393;Laerm;50712;49.506;10.400;2023-04-03T02:47:22;30.85;29.29;32.79;;
64393;Laerm;50712;49.506;10.400;2023-04-03T02:47:53;30.68;28.23;32.44;;
64393;Laerm;50712;49.506;10.400;2023-04-03T02:48:23;31.07;29.28;34.59;;
64393;Laerm;50712;49.506;10.400;2023-04-03T02:49:24;31.46;29.69;33.95;;
64393;Laerm;50712;49.506;10.400;2023-04-03T02:49:55;31.89;29.39;35.13;;
64393;Laerm;50712;49.506;10.400;2023-04-03T02:50:25;32.35;29.76;37.15;;
64393;Laerm;50712;49.506;10.400;2023-04-03T02:50:55;33.49;30.46;37.83;;
64393;Laerm;50712;49.506;10.400;2023-04-03T02:51:26;32.16;29.74;36.09;;
64393;Laerm;50712;49.506;10.400;2023-04-03T02:51:57;31.61;29.43;34.28;;
64393;Laerm;50712;49.506;10.400;2023-04-03T02:52:28;31.51;29.66;34.36;;
64393;Laerm;50712;49.506;10.400;2023-04-03T02:53:01;31.92;29.90;34.29;;
64393;Laerm;50712;49.506;10.400;2023-04-03T02:53:32;32.16;30.07;34.81;;
64393;Laerm;50712;49.506;10.400;2023-04-03T02:54:08;34.04;30.38;41.87;;
64393;Laerm;50712;49.506;10.400;2023-04-03T02:54:41;33.42;30.59;37.49;;
64393;Laerm;50712;49.506;10.400;2023-04-03T02:55:14;31.19;28.72;33.87;;
64393;Laerm;50712;49.506;10.400;2023-04-03T02:55:45;30.83;29.05;32.90;;
64393;Laerm;50712;49.506;10.400;2023-04-03T02:56:16;32.78;29.92;37.91;;
64393;Laerm;50712;49.506;10.400;2023-04-03T02:56:47;32.43;29.79;36.49;;
64393;Laerm;50712;49.506;10.400;2023-04-03T02:57:17;31.89;29.62;35.25;;
64393;Laerm;50712;49.506;10.400;2023-04-03T02:58:18;32.43;29.60;38.59;;
64393;Laerm;50712;49.506;10.400;2023-04-03T02:58:49;31.92;29.74;35.07;;
64393;Laerm;50712;49.506;10.400;2023-04-03T02:59:21;32.57;29.79;37.15;;
64393;Laerm;50712;49.506;10.400;2023-04-03T02:59:52;38.03;30.19;47.76;;
64393;Laerm;50712;49.506;10.400;2023-04-03T03:00:22;42.75;31.98;48.85;;
64393;Laerm;50712;49.506;10.400;2023-04-03T03:00:53;40.06;31.68;47.51;;
64393;Laerm;50712;49.506;10.400;2023-04-03T03:01:24;34.06;30.12;40.00;;
64393;Laerm;50712;49.506;10.400;2023-04-03T03:01:54;32.24;29.29;35.32;;
64393;Laerm;50712;49.506;10.400;2023-04-03T03:02:25;31.53;29.69;33.67;;
64393;Laerm;50712;49.506;10.400;2023-04-03T03:02:56;32.61;29.88;36.45;;
64393;Laerm;50712;49.506;10.400;2023-04-03T03:03:26;32.38;29.79;38.71;;